createdAt,value
2018-04-12T00:01:23.485Z,11.91
2018-04-12T00:03:53.003Z,11.86
2018-04-12T00:06:22.521Z,11.79
2018-04-12T00:08:52.017Z,11.70
2018-04-12T00:11:21.531Z,11.61
2018-04-12T00:13:51.067Z,11.59
2018-04-12T00:16:20.565Z,11.68
2018-04-12T00:18:50.459Z,11.52
2018-04-12T00:21:19.958Z,11.48
2018-04-12T00:23:49.452Z,11.44
2018-04-12T00:26:18.953Z,11.35
2018-04-12T00:28:48.471Z,11.31
2018-04-12T00:31:17.969Z,11.42
2018-04-12T00:33:47.459Z,11.59
2018-04-12T00:36:16.958Z,11.70
2018-04-12T00:38:46.450Z,11.75
2018-04-12T00:41:15.947Z,11.84
2018-04-12T00:43:45.500Z,11.99
2018-04-12T00:46:15.009Z,12.10
2018-04-12T00:48:44.700Z,12.20
2018-04-12T00:51:14.214Z,12.16
2018-04-12T00:54:07.664Z,12.20
2018-04-12T00:56:37.366Z,12.23
2018-04-12T00:59:06.858Z,12.19
2018-04-12T01:01:36.351Z,12.17
2018-04-12T01:04:06.252Z,12.13
2018-04-12T01:06:36.142Z,12.12
2018-04-12T01:09:04.751Z,12.13
2018-04-12T01:11:34.647Z,12.07
2018-04-12T01:14:04.110Z,11.92
2018-04-12T01:16:33.602Z,11.75
2018-04-12T01:19:02.861Z,11.78
2018-04-12T01:21:32.383Z,11.91
2018-04-12T01:24:02.281Z,11.80
2018-04-12T01:26:31.782Z,11.89
2018-04-12T01:29:01.307Z,11.92
2018-04-12T01:31:30.800Z,11.75
2018-04-12T01:34:00.294Z,11.70
2018-04-12T01:36:29.799Z,11.35
2018-04-12T01:38:59.296Z,10.92
2018-04-12T01:41:28.846Z,10.84
2018-04-12T01:43:58.746Z,10.97
2018-04-12T01:46:28.642Z,11.12
2018-04-12T01:48:58.153Z,11.15
2018-04-12T01:51:27.645Z,11.17
2018-04-12T01:53:56.910Z,11.27
2018-04-12T01:56:26.402Z,11.41
2018-04-12T01:58:55.902Z,11.48
2018-04-12T02:01:25.847Z,11.33
2018-04-12T02:03:55.341Z,11.34
2018-04-12T02:06:24.834Z,11.27
2018-04-12T02:08:54.339Z,11.36
2018-04-12T02:11:23.594Z,11.34
2018-04-12T02:13:52.854Z,11.34
2018-04-12T02:16:22.345Z,11.34
2018-04-12T02:18:51.601Z,11.06
2018-04-12T02:21:21.128Z,11.12
2018-04-12T02:23:50.623Z,11.00
2018-04-12T02:26:21.042Z,10.98
2018-04-12T02:28:50.889Z,10.92
2018-04-12T02:31:20.563Z,11.05
2018-04-12T02:33:50.064Z,10.96
2018-04-12T02:36:19.555Z,10.89
2018-04-12T02:38:49.051Z,11.03
2018-04-12T02:41:18.551Z,11.03
2018-04-12T02:43:48.055Z,10.99
2018-04-12T02:46:17.547Z,10.94
2018-04-12T02:48:47.042Z,10.88
2018-04-12T02:51:16.525Z,10.92
2018-04-12T02:53:46.413Z,10.86
2018-04-12T02:56:15.911Z,10.76
2018-04-12T02:58:45.471Z,10.72
2018-04-12T03:01:15.151Z,10.75
2018-04-12T03:03:44.411Z,10.82
2018-04-12T03:06:13.903Z,10.78
2018-04-12T03:08:43.393Z,10.83
2018-04-12T03:11:12.892Z,10.76
2018-04-12T03:13:42.777Z,10.69
2018-04-12T03:16:12.311Z,10.71
2018-04-12T03:18:42.191Z,10.70
2018-04-12T03:21:11.673Z,10.59
2018-04-12T03:23:41.193Z,10.56
2018-04-12T03:26:10.681Z,10.59
2018-04-12T03:28:40.173Z,10.58
2018-04-12T03:31:09.649Z,10.58
2018-04-12T03:33:39.531Z,10.61
2018-04-12T03:36:09.032Z,10.53
2018-04-12T03:38:38.520Z,10.57
2018-04-12T03:41:08.010Z,10.58
2018-04-12T03:43:37.505Z,10.33
2018-04-12T03:46:07.064Z,10.26
2018-04-12T03:48:36.647Z,9.81
2018-04-12T03:51:06.261Z,9.51
2018-04-12T03:53:35.759Z,9.60
2018-04-12T03:56:05.018Z,9.84
2018-04-12T03:58:34.925Z,9.97
2018-04-12T04:01:04.809Z,10.01
2018-04-12T04:03:34.310Z,10.15
2018-04-12T04:06:03.796Z,10.28
2018-04-12T04:08:33.290Z,10.30
2018-04-12T04:11:02.813Z,10.20
2018-04-12T04:13:32.320Z,10.09
2018-04-12T04:16:18.734Z,9.91
2018-04-12T04:19:04.932Z,9.77
2018-04-12T04:21:34.084Z,9.67
2018-04-12T04:24:03.575Z,9.68
2018-04-12T04:26:33.464Z,9.91
2018-04-12T04:29:03.022Z,10.00
2018-04-12T04:31:32.507Z,10.06
2018-04-12T04:34:02.002Z,10.06
2018-04-12T04:36:31.894Z,10.14
2018-04-12T04:39:01.414Z,10.09
2018-04-12T04:41:30.779Z,10.05
2018-04-12T04:44:00.269Z,10.04
2018-04-12T04:46:29.791Z,10.17
2018-04-12T04:48:59.313Z,10.02
2018-04-12T04:51:28.803Z,9.97
2018-04-12T04:53:58.289Z,9.99
2018-04-12T04:56:27.795Z,10.02
2018-04-12T04:58:57.297Z,10.09
2018-04-12T05:01:26.637Z,10.01
2018-04-12T05:03:56.271Z,10.03
2018-04-12T05:06:25.924Z,10.06
2018-04-12T05:08:55.222Z,10.21
2018-04-12T05:11:24.727Z,10.22
2018-04-12T05:13:54.223Z,10.33
2018-04-12T05:16:23.728Z,10.52
2018-04-12T05:18:53.541Z,10.57
2018-04-12T05:21:23.037Z,10.55
2018-04-12T05:23:52.307Z,10.36
2018-04-12T05:26:21.557Z,10.33
2018-04-12T05:28:51.073Z,10.52
2018-04-12T05:31:20.577Z,10.12
2018-04-12T05:33:50.151Z,9.98
2018-04-12T05:36:19.635Z,10.20
2018-04-12T05:38:49.525Z,10.38
2018-04-12T05:41:19.048Z,10.46
2018-04-12T05:43:48.555Z,10.61
2018-04-12T05:46:18.074Z,10.64
2018-04-12T05:48:47.788Z,10.58
2018-04-12T05:51:17.683Z,10.59
2018-04-12T05:53:47.310Z,10.66
2018-04-12T05:56:17.201Z,10.74
2018-04-12T05:58:46.469Z,10.76
2018-04-12T06:01:15.974Z,11.15
2018-04-12T06:03:45.477Z,12.24
2018-04-12T06:06:14.993Z,14.31
2018-04-12T06:08:44.156Z,16.00
2018-04-12T06:11:13.649Z,16.90
2018-04-12T06:13:43.152Z,17.44
2018-04-12T06:16:13.050Z,18.26
2018-04-12T06:18:42.555Z,19.26
2018-04-12T06:21:12.046Z,20.51
2018-04-12T06:23:41.532Z,21.22
2018-04-12T06:26:11.994Z,21.74
2018-04-12T06:28:42.052Z,22.54
2018-04-12T06:31:12.110Z,23.34
2018-04-12T06:33:42.560Z,24.11
2018-04-12T06:36:12.611Z,24.62
2018-04-12T06:38:42.650Z,25.01
2018-04-12T06:41:12.697Z,24.49
2018-04-12T06:43:42.737Z,25.31
2018-04-12T06:46:12.809Z,25.72
2018-04-12T06:48:43.276Z,25.21
2018-04-12T06:51:13.346Z,25.13
2018-04-12T06:53:43.408Z,25.54
2018-04-12T06:56:13.460Z,26.11
2018-04-12T06:58:43.522Z,25.88
2018-04-12T07:01:14.002Z,24.79
2018-04-12T07:03:44.068Z,22.27
2018-04-12T07:06:14.553Z,21.06
2018-04-12T07:08:44.613Z,19.63
2018-04-12T07:11:15.069Z,18.74
2018-04-12T07:13:44.329Z,16.98
2018-04-12T07:16:13.838Z,16.42
2018-04-12T07:18:43.430Z,15.58
2018-04-12T07:21:12.921Z,14.93
2018-04-12T07:23:42.423Z,14.60
2018-04-12T07:26:11.931Z,14.70
2018-04-12T07:28:41.459Z,15.06
2018-04-12T07:31:10.957Z,15.01
2018-04-12T07:33:40.655Z,14.70
2018-04-12T07:36:10.166Z,14.48
2018-04-12T07:38:39.675Z,14.61
2018-04-12T07:41:08.955Z,14.91
2018-04-12T07:43:38.857Z,15.25
2018-04-12T07:46:08.547Z,15.50
2018-04-12T07:48:38.038Z,15.46
2018-04-12T07:51:07.559Z,15.39
2018-04-12T07:53:37.058Z,15.66
2018-04-12T07:56:06.554Z,15.79
2018-04-12T07:58:36.070Z,15.84
2018-04-12T08:01:05.821Z,15.93
2018-04-12T08:03:34.979Z,15.91
2018-04-12T08:06:04.481Z,15.93
2018-04-12T08:08:33.972Z,15.89
2018-04-12T08:11:03.529Z,15.89
2018-04-12T08:13:33.437Z,15.99
2018-04-12T08:16:03.121Z,15.94
2018-04-12T08:18:32.605Z,15.48
2018-04-12T08:21:02.107Z,15.37
2018-04-12T08:23:31.630Z,16.00
2018-04-12T08:26:01.143Z,17.21
2018-04-12T08:28:30.711Z,17.64
2018-04-12T08:31:00.204Z,18.44
2018-04-12T08:33:29.704Z,18.12
2018-04-12T08:35:59.591Z,18.36
2018-04-12T08:38:29.117Z,18.72
2018-04-12T08:40:59.018Z,18.73
2018-04-12T08:43:28.935Z,18.66
2018-04-12T08:45:58.907Z,18.96
2018-04-12T08:48:28.959Z,18.50
2018-04-12T08:50:58.473Z,18.55
2018-04-12T08:53:28.375Z,18.46
2018-04-12T08:55:57.876Z,18.69
2018-04-12T08:58:27.385Z,18.68
2018-04-12T09:00:56.872Z,18.96
2018-04-12T09:03:26.370Z,18.93
2018-04-12T09:05:55.731Z,19.22
2018-04-12T09:08:25.623Z,19.39
2018-04-12T09:10:55.115Z,19.05
2018-04-12T09:13:24.613Z,19.11
2018-04-12T09:15:54.115Z,18.91
2018-04-12T09:18:23.621Z,18.83
2018-04-12T09:20:54.069Z,18.90
2018-04-12T09:23:23.591Z,19.12
2018-04-12T09:25:53.482Z,18.88
2018-04-12T09:28:22.973Z,18.81
2018-04-12T09:30:52.484Z,18.83
2018-04-12T09:33:21.996Z,18.84
2018-04-12T09:35:51.740Z,18.85
2018-04-12T09:38:21.634Z,18.79
2018-04-12T09:40:51.139Z,18.86
2018-04-12T09:43:20.645Z,19.13
2018-04-12T09:45:50.160Z,19.11
2018-04-12T09:48:19.860Z,19.16
2018-04-12T09:50:49.346Z,19.20
2018-04-12T09:53:18.846Z,19.29
2018-04-12T09:55:48.350Z,19.22
2018-04-12T09:58:17.854Z,19.11
2018-04-12T10:00:52.606Z,19.17
2018-04-12T10:03:22.100Z,19.27
2018-04-12T10:05:59.006Z,19.28
2018-04-12T10:08:28.678Z,19.17
2018-04-12T10:10:58.178Z,19.53
2018-04-12T10:13:27.678Z,19.84
2018-04-12T10:15:57.239Z,19.99
2018-04-12T10:18:27.134Z,19.66
2018-04-12T10:20:56.626Z,19.45
2018-04-12T10:23:26.136Z,19.47
2018-04-12T10:25:55.656Z,19.63
2018-04-12T10:28:25.151Z,19.65
2018-04-12T10:30:54.416Z,19.97
2018-04-12T10:33:24.126Z,19.78
2018-04-12T10:35:53.616Z,19.60
2018-04-12T10:38:23.108Z,19.71
2018-04-12T10:40:52.603Z,19.80
2018-04-12T10:43:22.498Z,20.13
2018-04-12T10:45:52.027Z,20.45
2018-04-12T10:48:22.120Z,20.50
2018-04-12T10:50:52.689Z,20.40
2018-04-12T10:53:21.964Z,20.67
2018-04-12T10:55:52.019Z,20.83
2018-04-12T10:58:22.079Z,20.93
2018-04-12T11:00:51.579Z,20.58
2018-04-12T11:03:22.064Z,20.81
2018-04-12T11:05:52.285Z,20.85
2018-04-12T11:08:22.091Z,20.68
2018-04-12T11:10:52.137Z,20.48
2018-04-12T11:13:22.190Z,20.46
2018-04-12T11:15:51.692Z,20.30
2018-04-12T11:18:21.267Z,20.42
2018-04-12T11:20:50.918Z,20.36
2018-04-12T11:23:20.587Z,20.41
2018-04-12T11:25:50.631Z,20.46
2018-04-12T11:28:21.075Z,20.55
2018-04-12T11:30:50.579Z,20.63
2018-04-12T11:33:21.010Z,20.59
2018-04-12T11:35:50.532Z,20.36
2018-04-12T11:38:20.414Z,20.47
2018-04-12T11:40:49.924Z,20.38
2018-04-12T11:43:19.448Z,20.34
2018-04-12T11:45:49.342Z,20.20
2018-04-12T11:48:19.790Z,20.13
2018-04-12T11:50:49.695Z,20.26
2018-04-12T11:53:19.740Z,20.33
2018-04-12T11:55:49.644Z,20.52
2018-04-12T11:58:19.361Z,20.47
2018-04-12T12:00:49.407Z,20.58
2018-04-12T12:03:19.453Z,20.44
2018-04-12T12:05:49.495Z,20.73
2018-04-12T12:08:18.981Z,20.65
2018-04-12T12:10:49.021Z,21.18
2018-04-12T12:13:19.457Z,21.20
2018-04-12T12:15:49.496Z,21.31
2018-04-12T12:18:19.557Z,21.51
2018-04-12T12:20:49.590Z,21.97
2018-04-12T12:23:20.024Z,22.43
2018-04-12T12:25:50.076Z,22.45
2018-04-12T12:28:20.135Z,22.85
2018-04-12T12:30:50.176Z,23.00
2018-04-12T12:33:20.612Z,22.71
2018-04-12T12:35:51.050Z,22.85
2018-04-12T12:38:21.113Z,23.07
2018-04-12T12:40:51.161Z,22.91
2018-04-12T12:43:21.386Z,22.69
2018-04-12T12:45:51.835Z,22.33
2018-04-12T12:48:21.901Z,21.43
2018-04-12T12:50:51.953Z,21.55
2018-04-12T12:53:22.191Z,21.61
2018-04-12T12:55:52.280Z,22.12
2018-04-12T12:58:22.491Z,22.25
2018-04-12T13:00:52.720Z,21.71
2018-04-12T13:03:22.431Z,21.65
2018-04-12T13:05:52.326Z,21.82
2018-04-12T13:08:22.353Z,21.82
2018-04-12T13:10:52.381Z,22.18
2018-04-12T13:13:22.445Z,22.35
2018-04-12T13:15:52.679Z,22.26
2018-04-12T13:18:22.737Z,22.21
2018-04-12T13:20:52.780Z,22.53
2018-04-12T13:23:23.004Z,22.48
2018-04-12T13:25:53.053Z,21.77
2018-04-12T13:28:22.932Z,21.84
2018-04-12T13:30:53.383Z,21.56
2018-04-12T13:33:23.430Z,21.13
2018-04-12T13:35:53.467Z,21.33
2018-04-12T13:38:23.513Z,21.27
2018-04-12T13:40:53.994Z,21.05
2018-04-12T13:43:24.035Z,20.98
2018-04-12T13:45:53.856Z,20.94
2018-04-12T13:48:24.071Z,20.98
2018-04-12T13:50:54.119Z,20.85
2018-04-12T13:53:24.583Z,20.96
2018-04-12T13:55:54.630Z,21.36
2018-04-12T13:58:24.696Z,21.50
2018-04-12T14:00:54.884Z,21.53
2018-04-12T14:03:24.927Z,21.55
2018-04-12T14:05:54.979Z,21.93
2018-04-12T14:08:25.028Z,22.09
2018-04-12T14:10:55.064Z,22.23
2018-04-12T14:13:25.536Z,22.36
2018-04-12T14:15:55.574Z,22.24
2018-04-12T14:18:25.618Z,22.15
2018-04-12T14:20:55.633Z,21.93
2018-04-12T14:23:25.688Z,22.06
2018-04-12T14:25:56.114Z,21.90
2018-04-12T14:28:26.556Z,21.77
2018-04-12T14:30:56.577Z,22.03
2018-04-12T14:33:26.643Z,22.36
2018-04-12T14:35:56.865Z,22.01
2018-04-12T14:38:26.934Z,21.87
2018-04-12T14:40:56.982Z,21.43
2018-04-12T14:43:27.035Z,21.27
2018-04-12T14:45:57.131Z,21.24
2018-04-12T14:48:27.176Z,21.32
2018-04-12T14:50:57.620Z,21.45
2018-04-12T14:53:28.067Z,21.69
2018-04-12T14:55:58.668Z,22.10
2018-04-12T14:58:29.112Z,22.26
2018-04-12T15:00:59.204Z,22.29
2018-04-12T15:03:29.655Z,21.65
2018-04-12T15:05:59.712Z,21.78
2018-04-12T15:08:29.770Z,21.88
2018-04-12T15:10:59.843Z,21.66
2018-04-12T15:13:29.897Z,21.74
2018-04-12T15:15:59.947Z,21.70
2018-04-12T15:18:30.414Z,21.70
2018-04-12T15:21:00.460Z,21.75
2018-04-12T15:23:30.510Z,21.89
2018-04-12T15:26:00.578Z,21.55
2018-04-12T15:28:30.662Z,21.80
2018-04-12T15:31:00.700Z,21.82
2018-04-12T15:33:30.773Z,21.64
2018-04-12T15:36:01.226Z,21.09
2018-04-12T15:38:31.274Z,20.36
2018-04-12T15:41:01.299Z,20.28
2018-04-12T15:43:31.524Z,20.25
2018-04-12T15:46:01.591Z,20.25
2018-04-12T15:48:31.646Z,20.20
2018-04-12T15:51:01.126Z,20.19
2018-04-12T15:53:31.044Z,20.22
2018-04-12T15:56:01.074Z,20.41
2018-04-12T15:58:31.010Z,20.59
2018-04-12T16:01:00.510Z,20.62
2018-04-12T16:03:30.540Z,20.73
2018-04-12T16:06:00.600Z,20.73
2018-04-12T16:08:30.650Z,20.83
2018-04-12T16:11:00.716Z,20.92
2018-04-12T16:13:30.768Z,20.59
2018-04-12T16:16:00.820Z,20.35
2018-04-12T16:18:30.878Z,20.55
2018-04-12T16:21:01.086Z,20.74
2018-04-12T16:23:31.133Z,20.70
2018-04-12T16:26:01.334Z,20.74
2018-04-12T16:28:31.805Z,20.47
2018-04-12T16:31:01.589Z,20.50
2018-04-12T16:33:32.243Z,20.32
2018-04-12T16:36:02.306Z,20.23
2018-04-12T16:38:32.145Z,19.97
2018-04-12T16:41:01.421Z,19.99
2018-04-12T16:43:31.458Z,20.17
2018-04-12T16:46:00.965Z,19.88
2018-04-12T16:48:30.477Z,20.02
2018-04-12T16:50:59.804Z,20.02
2018-04-12T16:53:29.472Z,19.97
2018-04-12T16:55:58.983Z,19.84
2018-04-12T16:58:28.489Z,19.84
2018-04-12T17:00:58.048Z,19.68
2018-04-12T17:03:27.949Z,19.76
2018-04-12T17:05:57.464Z,19.76
2018-04-12T17:08:27.392Z,19.76
2018-04-12T17:10:57.290Z,19.58
2018-04-12T17:13:27.193Z,19.40
2018-04-12T17:15:56.690Z,19.34
2018-04-12T17:18:26.183Z,19.28
2018-04-12T17:20:55.723Z,19.39
2018-04-12T17:23:25.612Z,19.24
2018-04-12T17:25:55.292Z,19.25
2018-04-12T17:28:24.570Z,19.16
2018-04-12T17:30:54.068Z,19.32
2018-04-12T17:33:23.973Z,19.32
2018-04-12T17:35:53.881Z,19.24
2018-04-12T17:38:23.548Z,19.18
2018-04-12T17:40:53.052Z,19.19
2018-04-12T17:43:22.555Z,19.08
2018-04-12T17:45:52.055Z,18.83
2018-04-12T17:48:21.589Z,18.80
2018-04-12T17:50:50.861Z,18.71
2018-04-12T17:53:20.358Z,18.72
2018-04-12T17:55:49.858Z,18.59
2018-04-12T17:58:19.368Z,18.59
2018-04-12T18:00:48.857Z,18.46
2018-04-12T18:03:18.367Z,18.25
2018-04-12T18:05:47.649Z,18.17
2018-04-12T18:08:17.559Z,17.92
2018-04-12T18:10:47.254Z,17.76
2018-04-12T18:13:16.771Z,17.61
2018-04-12T18:15:46.670Z,17.41
2018-04-12T18:18:16.191Z,17.31
2018-04-12T18:20:46.112Z,17.25
2018-04-12T18:23:16.021Z,17.19
2018-04-12T18:25:45.541Z,17.12
2018-04-12T18:28:15.223Z,17.08
2018-04-12T18:30:44.747Z,16.91
2018-04-12T18:33:14.469Z,16.96
2018-04-12T18:35:44.390Z,16.95
2018-04-12T18:38:13.891Z,16.84
2018-04-12T18:40:43.787Z,16.69
2018-04-12T18:43:13.701Z,16.54
2018-04-12T18:45:43.230Z,16.39
2018-04-12T18:48:12.739Z,16.35
2018-04-12T18:50:42.833Z,16.37
2018-04-12T18:53:12.747Z,16.39
2018-04-12T18:55:42.435Z,16.50
2018-04-12T18:58:11.939Z,16.34
2018-04-12T19:00:41.479Z,16.33
2018-04-12T19:03:11.380Z,16.28
2018-04-12T19:05:40.897Z,16.29
2018-04-12T19:08:10.806Z,16.06
2018-04-12T19:10:40.729Z,15.97
2018-04-12T19:13:10.641Z,15.80
2018-04-12T19:15:40.535Z,15.64
2018-04-12T19:18:10.329Z,15.66
2018-04-12T19:20:39.827Z,15.47
2018-04-12T19:23:09.327Z,15.35
2018-04-12T19:25:38.838Z,15.26
2018-04-12T19:28:08.549Z,15.30
2018-04-12T19:30:38.073Z,15.26
2018-04-12T19:33:07.561Z,15.45
2018-04-12T19:35:36.821Z,15.38
2018-04-12T19:38:06.495Z,15.39
2018-04-12T19:40:35.995Z,15.32
2018-04-12T19:43:05.519Z,15.39
2018-04-12T19:45:34.791Z,15.25
2018-04-12T19:48:04.295Z,15.28
2018-04-12T19:50:33.877Z,15.10
2018-04-12T19:53:03.378Z,14.89
2018-04-12T19:55:32.873Z,14.84
2018-04-12T19:58:02.390Z,14.69
2018-04-12T20:00:31.887Z,14.73
2018-04-12T20:03:01.391Z,14.78
2018-04-12T20:05:30.892Z,14.72
2018-04-12T20:08:00.385Z,14.61
2018-04-12T20:10:30.278Z,14.54
2018-04-12T20:12:59.779Z,14.48
2018-04-12T20:15:29.287Z,14.43
2018-04-12T20:17:58.802Z,14.35
2018-04-12T20:20:28.305Z,14.32
2018-04-12T20:22:57.854Z,14.20
2018-04-12T20:25:27.509Z,14.06
2018-04-12T20:27:57.051Z,13.98
2018-04-12T20:30:26.758Z,13.90
2018-04-12T20:32:56.649Z,13.71
2018-04-12T20:35:26.152Z,13.48
2018-04-12T20:37:55.650Z,13.45
2018-04-12T20:40:25.342Z,13.43
2018-04-12T20:42:54.847Z,13.62
2018-04-12T20:45:24.374Z,13.59
2018-04-12T20:47:54.184Z,13.61
2018-04-12T20:50:23.868Z,13.57
2018-04-12T20:52:53.375Z,13.65
2018-04-12T20:55:22.863Z,13.70
2018-04-12T20:57:52.382Z,13.79
2018-04-12T21:00:21.872Z,13.53
2018-04-12T21:02:57.586Z,12.93
2018-04-12T21:05:27.356Z,12.63
2018-04-12T21:07:56.851Z,12.52
2018-04-12T21:10:26.348Z,12.72
2018-04-12T21:12:55.842Z,12.74
2018-04-12T21:15:25.338Z,12.79
2018-04-12T21:17:54.855Z,12.87
2018-04-12T21:20:24.350Z,13.06
2018-04-12T21:22:53.882Z,13.01
2018-04-12T21:25:23.387Z,13.17
2018-04-12T21:27:52.887Z,12.69
2018-04-12T21:30:22.386Z,12.52
2018-04-12T21:32:51.892Z,12.12
2018-04-12T21:35:21.377Z,12.18
2018-04-12T21:37:51.279Z,12.18
2018-04-12T21:40:21.172Z,12.41
2018-04-12T21:42:50.441Z,12.58
2018-04-12T21:45:19.975Z,12.64
2018-04-12T21:47:49.473Z,12.91
2018-04-12T21:50:18.958Z,12.95
2018-04-12T21:52:48.479Z,12.89
2018-04-12T21:55:18.056Z,12.90
2018-04-12T21:57:47.555Z,12.74
2018-04-12T22:00:17.191Z,12.75
2018-04-12T22:02:46.727Z,12.69
2018-04-12T22:05:16.370Z,12.71
2018-04-12T22:07:45.915Z,12.82
2018-04-12T22:10:15.405Z,12.80
2018-04-12T22:12:44.891Z,12.78
2018-04-12T22:15:14.393Z,12.69
2018-04-12T22:17:44.293Z,12.49
2018-04-12T22:20:13.799Z,12.51
2018-04-12T22:22:43.689Z,12.65
2018-04-12T22:25:12.945Z,12.68
2018-04-12T22:27:42.448Z,12.54
2018-04-12T22:30:11.948Z,12.29
2018-04-12T22:32:41.445Z,12.27
2018-04-12T22:35:11.330Z,12.46
2018-04-12T22:37:40.836Z,12.29
2018-04-12T22:40:10.379Z,12.29
2018-04-12T22:42:39.968Z,12.44
2018-04-12T22:45:09.881Z,12.27
2018-04-12T22:47:40.099Z,12.50
2018-04-12T22:50:10.229Z,12.13
2018-04-12T22:52:40.175Z,12.08
2018-04-12T22:55:09.679Z,12.00
2018-04-12T22:57:39.176Z,11.95
2018-04-12T23:00:08.109Z,12.31
2018-04-12T23:02:37.619Z,12.22
2018-04-12T23:05:07.321Z,11.98
2018-04-12T23:07:36.825Z,11.79
2018-04-12T23:10:06.323Z,11.88
2018-04-12T23:12:35.901Z,12.01
2018-04-12T23:15:05.412Z,12.04
2018-04-12T23:17:34.928Z,12.13
2018-04-12T23:20:04.114Z,12.16
2018-04-12T23:22:33.641Z,12.03
2018-04-12T23:25:03.399Z,12.09
2018-04-12T23:27:33.311Z,12.09
2018-04-12T23:30:02.820Z,12.21
2018-04-12T23:32:32.335Z,12.28
2018-04-12T23:35:02.273Z,12.29
2018-04-12T23:37:31.818Z,12.11
2018-04-12T23:40:01.306Z,12.15
2018-04-12T23:42:30.809Z,12.14
2018-04-12T23:45:00.306Z,12.05
2018-04-12T23:47:29.828Z,12.07
2018-04-12T23:49:59.324Z,12.02
2018-04-12T23:52:28.876Z,12.03
2018-04-12T23:54:58.524Z,11.79
2018-04-12T23:57:28.024Z,11.85
2018-04-12T23:59:58.156Z,11.87
